Aviation Digital Data Service (ADDS)

Output produced by METARs form (0559 UTC 27 February 2015)
found at http://aviationweather.gov/adds/metars/
 
KACY 270534Z 2706/2806 33004KT P6SM SCT070 
     FM271400 33010KT P6SM FEW070 
     FM280000 32005KT P6SM FEW030 SCT200